Time;durP1;ratioP1;P1;durP2;ratioP2;P2;SDS_P1;SDS_P2;PMS_P1;PMS_P2;Temp;Humidity;BMP_temperature;BMP_pressure;BME280_temperature;BME280_humidity;BME280_pressure;Samples;Min_cycle;Max_cycle;Signal;HPM_P1;HPM_P2
2023/02/02 00:02:00;;;;;;;2.53;2.33;;;;;;;;;;4974578;28;20105;-89
2023/02/02 00:04:27;;;;;;;2.95;2.40;;;;;;;;;;4974593;28;20461;-89
2023/02/02 00:06:55;;;;;;;1.25;1.20;;;;;;;;;;4974618;28;20118;-89
2023/02/02 00:09:22;;;;;;;2.58;2.47;;;;;;;;;;4974139;28;20496;-88
2023/02/02 00:11:49;;;;;;;2.45;2.35;;;;;;;;;;4974619;28;20523;-89
2023/02/02 00:14:17;;;;;;;4.18;3.88;;;;;;;;;;4974858;28;20051;-89
2023/02/02 00:16:45;;;;;;;1.02;1.02;;;;;;;;;;4974630;28;20134;-89
2023/02/02 00:19:13;;;;;;;4.15;2.28;;;;;;;;;;4974378;28;20058;-89
2023/02/02 00:21:40;;;;;;;0.68;0.68;;;;;;;;;;4974404;28;20106;-88
2023/02/02 00:24:07;;;;;;;4.90;4.70;;;;;;;;;;4974123;28;20050;-89
2023/02/02 00:26:33;;;;;;;2.05;1.95;;;;;;;;;;4974127;28;20445;-89
2023/02/02 00:29:00;;;;;;;2.60;2.35;;;;;;;;;;4975546;28;20113;-89
2023/02/02 00:31:28;;;;;;;2.28;2.13;;;;;;;;;;4977013;28;20051;-89
2023/02/02 00:33:54;;;;;;;1.20;1.10;;;;;;;;;;4978652;28;20054;-89
2023/02/02 00:36:21;;;;;;;2.88;2.30;;;;;;;;;;4978388;28;20458;-90
2023/02/02 00:38:48;;;;;;;2.55;2.40;;;;;;;;;;4978115;28;20047;-89
2023/02/02 00:41:16;;;;;;;2.05;1.95;;;;;;;;;;4978174;28;20147;-89
2023/02/02 00:43:43;;;;;;;1.58;1.48;;;;;;;;;;4977702;28;20054;-89
2023/02/02 00:46:09;;;;;;;3.90;3.70;;;;;;;;;;4978653;28;20050;-89
2023/02/02 00:48:37;;;;;;;2.28;2.17;;;;;;;;;;4977276;28;20129;-89
2023/02/02 00:51:03;;;;;;;3.42;3.22;;;;;;;;;;4977467;28;20551;-90
2023/02/02 00:53:30;;;;;;;2.72;2.63;;;;;;;;;;4977622;28;20050;-89
2023/02/02 00:55:56;;;;;;;4.03;3.65;;;;;;;;;;4977168;28;20046;-89
2023/02/02 00:58:23;;;;;;;4.43;3.13;;;;;;;;;;4977261;28;20047;-89
2023/02/02 01:00:49;;;;;;;5.43;3.08;;;;;;;;;;4976860;28;20465;-89
2023/02/02 01:03:16;;;;;;;2.58;2.45;;;;;;;;;;4976525;28;20058;-90
2023/02/02 01:05:44;;;;;;;1.65;1.55;;;;;;;;;;4976698;28;20571;-89
2023/02/02 01:08:11;;;;;;;3.10;2.80;;;;;;;;;;4977390;28;20399;-88
2023/02/02 01:10:37;;;;;;;2.50;2.40;;;;;;;;;;4976941;28;20055;-88
2023/02/02 01:13:04;;;;;;;3.13;2.78;;;;;;;;;;4976885;28;20051;-88
2023/02/02 01:15:30;;;;;;;3.08;2.72;;;;;;;;;;4976824;28;20055;-88
2023/02/02 01:17:57;;;;;;;4.43;2.88;;;;;;;;;;4976898;28;20047;-88
2023/02/02 01:20:24;;;;;;;1.63;1.42;;;;;;;;;;4957403;29;20047;-88
2023/02/02 01:22:52;;;;;;;2.72;2.50;;;;;;;;;;4957759;29;20047;-88
2023/02/02 01:25:19;;;;;;;2.83;2.58;;;;;;;;;;4975990;28;20136;-88
2023/02/02 01:27:45;;;;;;;2.63;2.45;;;;;;;;;;4976914;28;20106;-88
2023/02/02 01:30:12;;;;;;;2.35;2.15;;;;;;;;;;4976449;28;20495;-88
2023/02/02 01:32:39;;;;;;;2.55;2.35;;;;;;;;;;4976655;28;20054;-88
2023/02/02 01:35:06;;;;;;;2.65;2.53;;;;;;;;;;4976175;28;20058;-88
2023/02/02 01:37:32;;;;;;;4.25;3.97;;;;;;;;;;4976352;28;20054;-88
2023/02/02 01:40:00;;;;;;;3.38;3.08;;;;;;;;;;4976303;28;20058;-87
2023/02/02 01:42:26;;;;;;;1.75;1.63;;;;;;;;;;4975854;28;20043;-88
2023/02/02 01:45:11;;;;;;;2.38;2.08;;;;;;;;;;4976226;28;20098;-87
2023/02/02 01:47:39;;;;;;;1.45;1.38;;;;;;;;;;4963571;28;20101;-87
2023/02/02 01:50:08;;;;;;;3.03;2.00;;;;;;;;;;4976393;28;20051;-87
2023/02/02 01:52:35;;;;;;;2.47;2.38;;;;;;;;;;4976338;28;20053;-87
2023/02/02 01:55:07;;;;;;;4.97;2.90;;;;;;;;;;4976619;28;20054;-87
2023/02/02 01:57:37;;;;;;;2.33;2.22;;;;;;;;;;4976263;28;20051;-88
2023/02/02 02:00:06;;;;;;;2.58;2.47;;;;;;;;;;4976089;28;20058;-87
2023/02/02 02:02:32;;;;;;;2.30;2.20;;;;;;;;;;4975823;28;20050;-88
2023/02/02 02:05:00;;;;;;;2.25;2.05;;;;;;;;;;4976103;28;20110;-88
2023/02/02 02:07:26;;;;;;;1.52;1.42;;;;;;;;;;4975913;28;20050;-87
2023/02/02 02:09:53;;;;;;;4.43;2.60;;;;;;;;;;4975683;28;20528;-88
2023/02/02 02:12:21;;;;;;;3.03;2.83;;;;;;;;;;4976281;28;20113;-88
2023/02/02 02:17:41;;;;;;;1.55;1.45;;;;;;;;;;4975884;28;20065;-88
2023/02/02 02:26:35;;;;;;;2.17;2.08;;;;;;;;;;4975384;28;20570;-87
2023/02/02 02:29:22;;;;;;;4.45;2.58;;;;;;;;;;4975575;28;20472;-87
2023/02/02 02:32:04;;;;;;;3.15;3.00;;;;;;;;;;4968806;28;20464;-88
2023/02/02 02:34:37;;;;;;;5.15;4.75;;;;;;;;;;4975127;28;20051;-88
2023/02/02 02:37:08;;;;;;;1.92;1.83;;;;;;;;;;4975236;28;20488;-87
2023/02/02 02:39:38;;;;;;;1.95;1.85;;;;;;;;;;4975572;28;20095;-87
2023/02/02 02:42:07;;;;;;;3.05;1.77;;;;;;;;;;4974890;28;20054;-87
2023/02/02 02:44:35;;;;;;;1.77;1.67;;;;;;;;;;4975455;28;20058;-87
2023/02/02 02:47:01;;;;;;;8.35;3.85;;;;;;;;;;4975135;28;20487;-87
2023/02/02 02:49:28;;;;;;;1.48;1.38;;;;;;;;;;4975185;28;20105;-87
2023/02/02 02:51:56;;;;;;;0.57;0.57;;;;;;;;;;4975380;28;20053;-87
2023/02/02 02:54:25;;;;;;;2.33;2.22;;;;;;;;;;4975201;28;20054;-87
2023/02/02 02:56:56;;;;;;;2.95;2.72;;;;;;;;;;4975226;28;20501;-87
2023/02/02 02:59:25;;;;;;;1.10;1.05;;;;;;;;;;4975420;28;20054;-87
2023/02/02 03:01:55;;;;;;;1.70;1.60;;;;;;;;;;4974943;28;20127;-87
2023/02/02 03:04:23;;;;;;;1.73;1.63;;;;;;;;;;4974733;28;20085;-87
2023/02/02 03:06:52;;;;;;;3.80;2.25;;;;;;;;;;4974906;28;20055;-87
2023/02/02 03:09:23;;;;;;;1.40;1.33;;;;;;;;;;4974334;28;20058;-87
2023/02/02 03:11:49;;;;;;;1.88;1.73;;;;;;;;;;4975126;28;20102;-87
2023/02/02 03:14:16;;;;;;;1.52;1.42;;;;;;;;;;4974669;28;20070;-87
2023/02/02 03:16:42;;;;;;;1.40;1.30;;;;;;;;;;4974780;28;20051;-86
2023/02/02 03:19:09;;;;;;;1.65;1.38;;;;;;;;;;4974901;28;20038;-87
2023/02/02 03:21:35;;;;;;;0.30;0.30;;;;;;;;;;4974685;28;20420;-87
2023/02/02 03:24:02;;;;;;;1.35;1.25;;;;;;;;;;4974528;28;20047;-86
2023/02/02 03:26:30;;;;;;;0.98;0.95;;;;;;;;;;4975261;28;20058;-87
2023/02/02 03:28:57;;;;;;;1.10;1.10;;;;;;;;;;4974576;28;20050;-88
2023/02/02 03:31:25;;;;;;;1.00;1.00;;;;;;;;;;4974684;28;20133;-88
2023/02/02 03:33:52;;;;;;;0.65;0.65;;;;;;;;;;4974623;28;20050;-87
2023/02/02 03:36:18;;;;;;;0.40;0.40;;;;;;;;;;4955055;29;20106;-87
2023/02/02 03:38:45;;;;;;;0.80;0.80;;;;;;;;;;4955099;29;20505;-87
2023/02/02 03:41:11;;;;;;;0.80;0.80;;;;;;;;;;4955182;29;20094;-87
2023/02/02 03:43:39;;;;;;;0.75;0.75;;;;;;;;;;4955478;29;20406;-87
2023/02/02 03:46:06;;;;;;;1.45;1.35;;;;;;;;;;4972438;28;20050;-87
2023/02/02 03:48:35;;;;;;;1.85;1.33;;;;;;;;;;4974478;28;20496;-87
2023/02/02 03:51:04;;;;;;;0.88;0.88;;;;;;;;;;4974386;28;20105;-87
2023/02/02 03:53:31;;;;;;;1.50;1.40;;;;;;;;;;4974921;28;20055;-88
2023/02/02 03:55:57;;;;;;;0.20;0.17;;;;;;;;;;4974896;28;20055;-87
2023/02/02 03:58:24;;;;;;;0.88;0.88;;;;;;;;;;4974822;28;20059;-88
2023/02/02 04:00:54;;;;;;;0.93;0.93;;;;;;;;;;4974587;28;20050;-88
2023/02/02 04:03:20;;;;;;;1.23;1.17;;;;;;;;;;4974626;28;20055;-88
2023/02/02 04:05:49;;;;;;;0.50;0.50;;;;;;;;;;4975535;28;20047;-88
2023/02/02 04:08:15;;;;;;;8.20;1.65;;;;;;;;;;4978041;28;20050;-88
2023/02/02 04:10:42;;;;;;;5.30;1.40;;;;;;;;;;4978257;28;20051;-88
2023/02/02 04:13:08;;;;;;;1.45;1.42;;;;;;;;;;4978190;28;20054;-88
2023/02/02 04:15:35;;;;;;;2.78;1.60;;;;;;;;;;4977607;28;20058;-88
2023/02/02 04:18:03;;;;;;;0.40;0.40;;;;;;;;;;4978061;28;20394;-88
2023/02/02 04:20:29;;;;;;;1.42;1.33;;;;;;;;;;4978003;28;20122;-88
2023/02/02 04:22:56;;;;;;;0.65;0.65;;;;;;;;;;4978145;28;20051;-88
2023/02/02 04:25:22;;;;;;;0.73;0.73;;;;;;;;;;4978111;28;20051;-88
2023/02/02 04:27:49;;;;;;;1.23;1.20;;;;;;;;;;4978206;28;20050;-88
2023/02/02 04:30:16;;;;;;;0.60;0.60;;;;;;;;;;4977914;28;20047;-88
2023/02/02 04:32:42;;;;;;;1.25;1.25;;;;;;;;;;4977718;28;20054;-88
2023/02/02 04:35:10;;;;;;;0.60;0.60;;;;;;;;;;4977950;28;20039;-88
2023/02/02 04:37:37;;;;;;;0.90;0.90;;;;;;;;;;4977880;28;20047;-87
2023/02/02 04:40:03;;;;;;;1.45;1.35;;;;;;;;;;4977504;28;20054;-87
2023/02/02 04:42:33;;;;;;;1.17;1.13;;;;;;;;;;4977871;28;20051;-87
2023/02/02 04:44:59;;;;;;;0.75;0.75;;;;;;;;;;4977405;28;20047;-87
2023/02/02 04:47:26;;;;;;;1.52;1.42;;;;;;;;;;4977211;28;20073;-87
2023/02/02 04:49:52;;;;;;;0.50;0.50;;;;;;;;;;4977039;28;20093;-87
2023/02/02 04:52:20;;;;;;;1.50;1.48;;;;;;;;;;4977670;28;20106;-88
2023/02/02 04:54:47;;;;;;;1.48;1.38;;;;;;;;;;4977452;28;20045;-87
2023/02/02 04:57:13;;;;;;;1.98;1.77;;;;;;;;;;4977369;28;20433;-88
2023/02/02 04:59:40;;;;;;;7.63;2.13;;;;;;;;;;4977374;28;20106;-88
2023/02/02 05:02:06;;;;;;;1.52;1.42;;;;;;;;;;4977154;28;20459;-88
2023/02/02 05:04:33;;;;;;;1.85;1.75;;;;;;;;;;4977361;28;20051;-87
2023/02/02 05:06:59;;;;;;;3.28;3.00;;;;;;;;;;4977728;28;20389;-88
2023/02/02 05:09:27;;;;;;;1.90;1.80;;;;;;;;;;4977177;28;20055;-87
2023/02/02 05:11:53;;;;;;;1.77;1.58;;;;;;;;;;4976790;28;20102;-87
2023/02/02 05:14:20;;;;;;;1.77;1.67;;;;;;;;;;4977532;28;20046;-87
2023/02/02 05:16:48;;;;;;;1.65;1.55;;;;;;;;;;4976164;28;20054;-88
2023/02/02 05:19:15;;;;;;;1.30;1.20;;;;;;;;;;4976760;28;20055;-87
2023/02/02 05:21:43;;;;;;;1.38;1.35;;;;;;;;;;4977175;28;20046;-88
2023/02/02 05:24:10;;;;;;;0.98;0.98;;;;;;;;;;4976891;28;20059;-88
2023/02/02 05:26:38;;;;;;;0.95;0.93;;;;;;;;;;4976659;28;20069;-88
2023/02/02 05:29:05;;;;;;;1.35;1.27;;;;;;;;;;4977143;28;20050;-87
2023/02/02 05:31:32;;;;;;;0.90;0.90;;;;;;;;;;4976936;28;20047;-87
2023/02/02 05:33:58;;;;;;;0.95;0.95;;;;;;;;;;4977121;28;20114;-87
2023/02/02 05:36:25;;;;;;;0.70;0.70;;;;;;;;;;4976475;28;20055;-87
2023/02/02 05:38:51;;;;;;;1.15;1.05;;;;;;;;;;4976966;28;20109;-87
2023/02/02 05:41:18;;;;;;;4.55;4.35;;;;;;;;;;4976482;28;20105;-87
2023/02/02 05:43:46;;;;;;;1.02;0.93;;;;;;;;;;4977447;28;20051;-87
2023/02/02 05:46:12;;;;;;;4.80;1.00;;;;;;;;;;4977256;28;20055;-88
2023/02/02 05:48:39;;;;;;;1.40;1.38;;;;;;;;;;4976758;28;20051;-87
2023/02/02 05:51:09;;;;;;;1.88;1.77;;;;;;;;;;4976472;28;20109;-87
2023/02/02 05:53:36;;;;;;;1.63;1.52;;;;;;;;;;4976460;28;20465;-87
2023/02/02 05:56:03;;;;;;;1.52;1.40;;;;;;;;;;4977370;28;20046;-87
2023/02/02 05:58:29;;;;;;;1.27;1.27;;;;;;;;;;4979231;28;20058;-88
2023/02/02 06:00:57;;;;;;;2.85;2.70;;;;;;;;;;4978048;28;20055;-87
2023/02/02 06:03:24;;;;;;;2.78;2.58;;;;;;;;;;4983766;28;20047;-88
2023/02/02 06:05:50;;;;;;;3.70;1.40;;;;;;;;;;4987090;28;20058;-88
2023/02/02 06:08:17;;;;;;;1.90;1.80;;;;;;;;;;4986821;28;20047;-88
2023/02/02 06:10:43;;;;;;;0.93;0.93;;;;;;;;;;4985895;28;20117;-87
2023/02/02 06:13:10;;;;;;;6.45;3.85;;;;;;;;;;4978714;28;20114;-88
2023/02/02 06:15:37;;;;;;;0.80;0.80;;;;;;;;;;4983428;28;20062;-87
2023/02/02 06:18:07;;;;;;;1.50;1.45;;;;;;;;;;4986309;28;20054;-88
2023/02/02 06:20:34;;;;;;;2.70;2.53;;;;;;;;;;4981081;28;20074;-88
2023/02/02 06:23:00;;;;;;;2.15;2.05;;;;;;;;;;4972107;28;20042;-87
2023/02/02 06:25:27;;;;;;;2.35;1.27;;;;;;;;;;4967911;28;20670;-88
2023/02/02 06:27:55;;;;;;;1.13;1.10;;;;;;;;;;4935837;29;20070;-88
2023/02/02 06:30:22;;;;;;;1.30;1.20;;;;;;;;;;4938876;29;20054;-88
2023/02/02 06:32:48;;;;;;;0.38;0.28;;;;;;;;;;4955903;29;20054;-88
2023/02/02 06:35:16;;;;;;;3.95;3.75;;;;;;;;;;4956776;29;20102;-87
2023/02/02 06:37:49;;;;;;;1.98;1.88;;;;;;;;;;4956590;29;20051;-90
2023/02/02 06:40:15;;;;;;;3.10;2.88;;;;;;;;;;4956358;29;20134;-88
2023/02/02 06:42:42;;;;;;;1.83;1.73;;;;;;;;;;4956663;29;20099;-89
2023/02/02 06:45:09;;;;;;;2.67;2.55;;;;;;;;;;4956451;29;20067;-88
2023/02/02 06:47:35;;;;;;;4.20;3.20;;;;;;;;;;4951892;29;20572;-89
2023/02/02 06:50:02;;;;;;;2.30;2.17;;;;;;;;;;4937204;29;20478;-89
2023/02/02 06:52:30;;;;;;;3.88;3.67;;;;;;;;;;4936573;29;20051;-89
2023/02/02 06:54:56;;;;;;;3.20;2.90;;;;;;;;;;4936959;29;20070;-89
2023/02/02 06:57:23;;;;;;;1.67;1.58;;;;;;;;;;4936855;29;20043;-90
2023/02/02 06:59:50;;;;;;;1.88;1.30;;;;;;;;;;4955590;29;20051;-89
2023/02/02 07:02:16;;;;;;;7.20;2.95;;;;;;;;;;4955618;29;20047;-90
2023/02/02 07:04:43;;;;;;;2.72;2.53;;;;;;;;;;4955480;29;20058;-90
2023/02/02 07:07:09;;;;;;;3.85;3.33;;;;;;;;;;4955253;29;20098;-90
2023/02/02 07:09:37;;;;;;;3.90;2.00;;;;;;;;;;4955375;29;20059;-89
2023/02/02 07:12:03;;;;;;;1.83;1.70;;;;;;;;;;4955262;29;20498;-89
2023/02/02 07:14:30;;;;;;;1.45;1.35;;;;;;;;;;4955271;29;20051;-89
2023/02/02 07:16:56;;;;;;;2.97;2.78;;;;;;;;;;4955356;29;20059;-90
2023/02/02 07:19:23;;;;;;;4.50;4.20;;;;;;;;;;4955432;29;20106;-90
2023/02/02 07:21:50;;;;;;;1.50;1.40;;;;;;;;;;4955416;29;20083;-89
2023/02/02 07:24:16;;;;;;;1.48;1.38;;;;;;;;;;4955676;29;20054;-91
2023/02/02 07:26:44;;;;;;;2.90;2.72;;;;;;;;;;4955298;28;20070;-89
2023/02/02 07:29:12;;;;;;;3.53;3.10;;;;;;;;;;4955596;29;20051;-89
2023/02/02 07:31:39;;;;;;;2.38;2.13;;;;;;;;;;4955059;29;20130;-88
2023/02/02 07:34:06;;;;;;;2.90;1.83;;;;;;;;;;4962833;29;20131;-90
2023/02/02 07:36:32;;;;;;;5.22;4.88;;;;;;;;;;4955012;29;20114;-89
2023/02/02 07:39:01;;;;;;;5.15;4.75;;;;;;;;;;4955459;29;20055;-88
2023/02/02 07:41:27;;;;;;;3.97;3.78;;;;;;;;;;4958211;28;20047;-88
2023/02/02 07:43:55;;;;;;;3.80;3.53;;;;;;;;;;4959662;29;20488;-88
2023/02/02 07:46:22;;;;;;;2.25;2.15;;;;;;;;;;4956077;29;20047;-87
2023/02/02 07:48:49;;;;;;;2.22;2.08;;;;;;;;;;4958803;29;20054;-88
2023/02/02 07:51:16;;;;;;;1.95;1.83;;;;;;;;;;4957967;29;20109;-85
2023/02/02 07:53:43;;;;;;;5.15;4.65;;;;;;;;;;4958606;29;20051;-87
2023/02/02 07:56:11;;;;;;;2.63;2.50;;;;;;;;;;4958657;29;20071;-85
2023/02/02 07:58:37;;;;;;;2.28;1.98;;;;;;;;;;4958933;29;20051;-85
2023/02/02 08:01:06;;;;;;;4.22;3.83;;;;;;;;;;4957914;29;20047;-85
2023/02/02 08:03:33;;;;;;;8.50;4.43;;;;;;;;;;4958326;28;20054;-85
2023/02/02 08:06:00;;;;;;;2.83;2.63;;;;;;;;;;4956515;28;20047;-85
2023/02/02 08:08:26;;;;;;;4.25;3.90;;;;;;;;;;4957914;29;20054;-87
2023/02/02 08:10:54;;;;;;;3.38;3.10;;;;;;;;;;4958277;29;20050;-88
2023/02/02 08:13:20;;;;;;;3.10;2.90;;;;;;;;;;4958305;29;20070;-87
2023/02/02 08:15:47;;;;;;;4.32;3.95;;;;;;;;;;4957719;29;20613;-87
2023/02/02 08:18:15;;;;;;;4.40;3.10;;;;;;;;;;4957933;29;20062;-85
2023/02/02 08:20:42;;;;;;;3.65;3.45;;;;;;;;;;4958778;29;20052;-86
2023/02/02 08:23:14;;;;;;;4.95;2.97;;;;;;;;;;4957395;29;20613;-87
2023/02/02 08:25:40;;;;;;;4.63;2.17;;;;;;;;;;4965560;28;20054;-87
2023/02/02 08:28:07;;;;;;;2.42;2.28;;;;;;;;;;4977164;28;20524;-87
2023/02/02 08:30:34;;;;;;;4.30;4.03;;;;;;;;;;4977854;28;20063;-87
2023/02/02 08:33:00;;;;;;;2.97;2.15;;;;;;;;;;4976822;28;20098;-86
2023/02/02 08:35:28;;;;;;;4.18;3.92;;;;;;;;;;4976010;28;20055;-85
2023/02/02 08:37:55;;;;;;;2.03;1.90;;;;;;;;;;4974453;28;20138;-87
2023/02/02 08:40:22;;;;;;;1.83;1.52;;;;;;;;;;4977012;28;20489;-88
2023/02/02 08:42:52;;;;;;;4.15;3.85;;;;;;;;;;4976633;28;20053;-87
2023/02/02 08:45:19;;;;;;;4.05;3.85;;;;;;;;;;4976342;28;20499;-87
2023/02/02 08:47:45;;;;;;;2.85;2.17;;;;;;;;;;4976273;28;20054;-88
2023/02/02 08:50:12;;;;;;;2.20;2.05;;;;;;;;;;4975941;28;20110;-88
2023/02/02 08:52:40;;;;;;;1.52;1.45;;;;;;;;;;4976390;28;20077;-88
2023/02/02 08:55:07;;;;;;;2.92;2.70;;;;;;;;;;4977151;28;20484;-91
2023/02/02 08:57:33;;;;;;;4.90;3.45;;;;;;;;;;4977724;28;20472;-90
2023/02/02 09:00:00;;;;;;;2.88;2.70;;;;;;;;;;4978168;28;20046;-91
2023/02/02 09:02:26;;;;;;;3.63;3.30;;;;;;;;;;4978859;28;20046;-92
2023/02/02 09:04:53;;;;;;;3.70;3.47;;;;;;;;;;4978455;28;20047;-89
2023/02/02 09:07:19;;;;;;;2.55;2.35;;;;;;;;;;4978060;28;20106;-91
2023/02/02 09:09:51;;;;;;;3.90;3.60;;;;;;;;;;4979193;28;20051;-90
2023/02/02 09:12:18;;;;;;;1.75;1.63;;;;;;;;;;4979723;28;20053;-91
2023/02/02 09:14:44;;;;;;;0.77;0.77;;;;;;;;;;4978195;28;20062;-90
2023/02/02 09:17:12;;;;;;;1.90;1.75;;;;;;;;;;4977725;28;20047;-91
2023/02/02 09:19:38;;;;;;;5.68;2.42;;;;;;;;;;4977374;28;20047;-90
2023/02/02 09:22:05;;;;;;;2.58;2.42;;;;;;;;;;4957982;29;20051;-91
2023/02/02 09:24:31;;;;;;;2.40;2.28;;;;;;;;;;4958263;29;20051;-91
2023/02/02 09:26:59;;;;;;;2.35;2.15;;;;;;;;;;4939392;29;20070;-90
2023/02/02 09:29:26;;;;;;;2.30;2.20;;;;;;;;;;4938905;29;20111;-91
2023/02/02 09:31:52;;;;;;;2.50;2.22;;;;;;;;;;4938514;29;20056;-92
2023/02/02 09:34:19;;;;;;;3.70;3.38;;;;;;;;;;4938355;29;20462;-92
2023/02/02 09:36:46;;;;;;;2.33;1.92;;;;;;;;;;4942794;29;20106;-91
2023/02/02 09:39:13;;;;;;;3.45;2.92;;;;;;;;;;4957907;29;20051;-91
2023/02/02 09:42:07;;;;;;;3.45;2.63;;;;;;;;;;4958085;29;20057;-92
2023/02/02 09:44:44;;;;;;;5.78;5.30;;;;;;;;;;4957620;29;20051;-92
2023/02/02 09:47:15;;;;;;;2.50;2.35;;;;;;;;;;4957839;29;20070;-92
2023/02/02 09:49:48;;;;;;;4.65;3.75;;;;;;;;;;4957763;29;20051;-92
2023/02/02 09:52:18;;;;;;;1.85;1.75;;;;;;;;;;4957109;29;20505;-91
2023/02/02 09:54:46;;;;;;;3.17;2.92;;;;;;;;;;4957200;29;20102;-92
2023/02/02 09:57:15;;;;;;;2.53;2.33;;;;;;;;;;4957281;29;20055;-92
2023/02/02 09:59:43;;;;;;;3.08;2.88;;;;;;;;;;4958779;29;20054;-92
2023/02/02 10:02:14;;;;;;;4.40;2.30;;;;;;;;;;4957447;29;20055;-90
2023/02/02 10:04:41;;;;;;;;;;;;;;;;;;4956856;28;20052;-92
2023/02/02 10:07:09;;;;;;;1.98;1.88;;;;;;;;;;4957473;29;19933;-91
2023/02/02 10:09:39;;;;;;;2.92;2.65;;;;;;;;;;4957691;29;20047;-92
2023/02/02 10:12:14;;;;;;;2.50;2.33;;;;;;;;;;4957311;29;20086;-91
2023/02/02 10:14:47;;;;;;;3.63;3.33;;;;;;;;;;4957455;29;20054;-92
2023/02/02 10:17:23;;;;;;;5.93;5.63;;;;;;;;;;4957272;29;20055;-91
2023/02/02 10:19:52;;;;;;;3.20;3.00;;;;;;;;;;4956888;29;20058;-92
2023/02/02 10:22:21;;;;;;;2.10;1.95;;;;;;;;;;4956495;29;20066;-92
2023/02/02 10:24:47;;;;;;;4.65;3.45;;;;;;;;;;4956664;28;20110;-91
2023/02/02 10:27:15;;;;;;;3.63;3.42;;;;;;;;;;4956373;29;20473;-91
2023/02/02 10:29:48;;;;;;;1.48;1.25;;;;;;;;;;4956441;29;20051;-91
2023/02/02 10:32:21;;;;;;;2.03;1.92;;;;;;;;;;4956474;29;20129;-91
2023/02/02 10:34:53;;;;;;;3.13;2.83;;;;;;;;;;4956652;29;20053;-91
2023/02/02 10:37:24;;;;;;;2.85;2.65;;;;;;;;;;4956722;29;20102;-91
2023/02/02 10:39:55;;;;;;;3.40;3.20;;;;;;;;;;4956430;29;20051;-91
2023/02/02 10:42:21;;;;;;;;;;;;;;;;;;4956525;29;20055;-91
2023/02/02 10:44:50;;;;;;;4.03;3.63;;;;;;;;;;4955545;29;20384;-91
2023/02/02 10:47:22;;;;;;;3.13;2.92;;;;;;;;;;4955728;29;20055;-92
2023/02/02 10:49:51;;;;;;;3.22;3.03;;;;;;;;;;4955874;29;20137;-92
2023/02/02 10:52:19;;;;;;;2.03;1.92;;;;;;;;;;4956395;29;20062;-92
2023/02/02 10:54:51;;;;;;;2.05;1.85;;;;;;;;;;4956056;29;20493;-92
2023/02/02 10:57:22;;;;;;;5.60;2.65;;;;;;;;;;4956095;29;20805;-92
2023/02/02 10:59:56;;;;;;;5.60;5.20;;;;;;;;;;4956089;29;20588;-92
2023/02/02 11:02:22;;;;;;;2.67;2.58;;;;;;;;;;4956105;29;20058;-92
2023/02/02 11:07:32;;;;;;;2.60;2.40;;;;;;;;;;4926430;29;20054;-91
2023/02/02 11:09:58;;;;;;;2.63;2.42;;;;;;;;;;4955951;29;20055;-91
2023/02/02 11:12:28;;;;;;;3.78;3.58;;;;;;;;;;4955842;29;20054;-92
2023/02/02 11:15:00;;;;;;;4.25;2.20;;;;;;;;;;4955322;28;20107;-92
2023/02/02 11:17:27;;;;;;;2.90;2.63;;;;;;;;;;4954752;28;20147;-92
2023/02/02 11:19:55;;;;;;;2.30;2.20;;;;;;;;;;4937450;29;20056;-92
2023/02/02 11:22:26;;;;;;;2.60;2.40;;;;;;;;;;4940419;29;20083;-92
2023/02/02 11:24:53;;;;;;;5.18;4.97;;;;;;;;;;4957681;28;20478;-91
2023/02/02 11:27:21;;;;;;;2.25;1.92;;;;;;;;;;4976238;28;20047;-92
2023/02/02 11:29:49;;;;;;;2.20;2.10;;;;;;;;;;4968078;28;20536;-92
2023/02/02 11:32:25;;;;;;;2.42;2.22;;;;;;;;;;4956262;29;20062;-91
2023/02/02 11:35:04;;;;;;;4.25;1.92;;;;;;;;;;4956036;29;20126;-92
2023/02/02 11:37:31;;;;;;;3.45;3.25;;;;;;;;;;4956076;29;20942;-91
2023/02/02 11:40:17;;;;;;;2.30;2.20;;;;;;;;;;4956631;29;20143;-92
2023/02/02 11:42:45;;;;;;;2.42;2.22;;;;;;;;;;4956445;29;20111;-91
2023/02/02 11:45:16;;;;;;;2.25;2.15;;;;;;;;;;4956172;29;20055;-92
2023/02/02 11:47:45;;;;;;;5.28;5.07;;;;;;;;;;4956119;29;20047;-92
2023/02/02 11:50:26;;;;;;;2.25;2.15;;;;;;;;;;4955754;29;20048;-92
2023/02/02 11:52:53;;;;;;;2.10;1.65;;;;;;;;;;4956706;29;20052;-91
2023/02/02 11:55:22;;;;;;;3.22;3.13;;;;;;;;;;4956549;29;20058;-92
2023/02/02 11:58:03;;;;;;;1.95;1.67;;;;;;;;;;4959969;29;20051;-93
2023/02/02 12:00:30;;;;;;;3.08;2.88;;;;;;;;;;4956302;28;20051;-92
2023/02/02 12:03:01;;;;;;;3.45;3.35;;;;;;;;;;4957516;29;20094;-91
2023/02/02 12:05:35;;;;;;;1.63;1.52;;;;;;;;;;4960458;29;20172;-92
2023/02/02 12:08:03;;;;;;;2.13;2.03;;;;;;;;;;4959800;29;20051;-92
2023/02/02 12:10:33;;;;;;;5.95;5.75;;;;;;;;;;4957741;29;20051;-92
2023/02/02 12:13:18;;;;;;;1.45;1.38;;;;;;;;;;4960884;29;20051;-93
2023/02/02 12:15:50;;;;;;;6.78;6.47;;;;;;;;;;4957561;29;20058;-92
2023/02/02 12:18:26;;;;;;;1.10;1.10;;;;;;;;;;4956780;29;20047;-92
2023/02/02 12:20:56;;;;;;;1.90;1.80;;;;;;;;;;4957879;29;20051;-93
2023/02/02 12:23:30;;;;;;;2.08;1.98;;;;;;;;;;4956095;29;20048;-90
2023/02/02 12:26:06;;;;;;;1.75;1.65;;;;;;;;;;4956293;28;20058;-92
2023/02/02 12:28:51;;;;;;;1.42;1.33;;;;;;;;;;4962178;29;20058;-92
2023/02/02 12:31:20;;;;;;;3.58;3.15;;;;;;;;;;4977169;28;20050;-91
2023/02/02 12:33:51;;;;;;;2.75;1.77;;;;;;;;;;4985857;28;20051;-91
2023/02/02 12:36:17;;;;;;;;;;;;;;;;;;4995404;28;20077;-91
2023/02/02 12:38:54;;;;;;;3.97;2.75;;;;;;;;;;4982117;28;19985;-92
2023/02/02 12:41:28;;;;;;;2.85;2.72;;;;;;;;;;4978845;28;20061;-91
2023/02/02 12:43:57;;;;;;;1.70;1.60;;;;;;;;;;4979387;28;20058;-91
2023/02/02 12:46:37;;;;;;;3.15;2.85;;;;;;;;;;4980219;28;20416;-90
2023/02/02 12:49:14;;;;;;;2.22;2.13;;;;;;;;;;4978882;28;20109;-90
2023/02/02 12:51:40;;;;;;;;;;;;;;;;;;4979333;28;20046;-91
2023/02/02 12:54:17;;;;;;;1.52;1.40;;;;;;;;;;4980083;28;19926;-94
2023/02/02 12:56:47;;;;;;;2.15;2.05;;;;;;;;;;4983394;28;20054;-93
2023/02/02 12:59:18;;;;;;;3.13;2.03;;;;;;;;;;4983895;28;20505;-90
2023/02/02 13:01:53;;;;;;;6.30;1.50;;;;;;;;;;4982914;28;20532;-91
2023/02/02 13:04:32;;;;;;;5.03;4.82;;;;;;;;;;4969238;28;20047;-91
2023/02/02 13:07:17;;;;;;;2.05;1.95;;;;;;;;;;4964027;29;20055;-91
2023/02/02 13:09:47;;;;;;;2.67;2.13;;;;;;;;;;4962349;29;20453;-92
2023/02/02 13:12:14;;;;;;;1.95;1.85;;;;;;;;;;4962689;29;20071;-91
2023/02/02 13:14:43;;;;;;;4.95;4.75;;;;;;;;;;4976336;28;20142;-89
2023/02/02 13:17:11;;;;;;;2.17;2.08;;;;;;;;;;4980699;28;20493;-91
2023/02/02 13:19:41;;;;;;;2.15;1.98;;;;;;;;;;4978186;28;20398;-87
2023/02/02 13:22:10;;;;;;;1.70;1.60;;;;;;;;;;4977875;28;20746;-88
2023/02/02 13:24:38;;;;;;;2.10;2.00;;;;;;;;;;4959255;29;20046;-88
2023/02/02 13:27:06;;;;;;;1.80;1.70;;;;;;;;;;4978411;28;20046;-88
2023/02/02 13:29:35;;;;;;;2.03;1.92;;;;;;;;;;4977530;28;20043;-88
2023/02/02 13:32:04;;;;;;;5.80;5.55;;;;;;;;;;4961519;28;20089;-88
2023/02/02 13:34:38;;;;;;;5.28;5.07;;;;;;;;;;4976238;28;20129;-88
2023/02/02 13:37:08;;;;;;;3.47;3.13;;;;;;;;;;4972019;28;20504;-87
2023/02/02 13:39:53;;;;;;;7.43;7.13;;;;;;;;;;4967457;28;20145;-88
2023/02/02 13:42:25;;;;;;;3.20;3.00;;;;;;;;;;4975338;28;20062;-88
2023/02/02 13:44:53;;;;;;;3.03;2.05;;;;;;;;;;4975192;28;20054;-89
2023/02/02 13:47:22;;;;;;;2.30;2.20;;;;;;;;;;4974894;28;20063;-86
2023/02/02 13:49:50;;;;;;;2.10;1.85;;;;;;;;;;4974762;28;20046;-86
2023/02/02 13:52:25;;;;;;;3.65;3.35;;;;;;;;;;4974848;28;20484;-88
2023/02/02 13:55:09;;;;;;;2.60;2.40;;;;;;;;;;4975729;28;20058;-86
2023/02/02 13:57:45;;;;;;;2.85;2.65;;;;;;;;;;4962267;28;20051;-86
2023/02/02 14:00:32;;;;;;;3.05;2.85;;;;;;;;;;4975662;28;20496;-88
2023/02/02 14:03:02;;;;;;;2.97;2.75;;;;;;;;;;4975688;28;20086;-88
2023/02/02 14:05:30;;;;;;;1.92;1.83;;;;;;;;;;4968299;28;20043;-90
2023/02/02 14:08:02;;;;;;;2.15;2.05;;;;;;;;;;4975671;28;20058;-88
2023/02/02 14:10:31;;;;;;;2.40;2.30;;;;;;;;;;4976319;28;20082;-88
2023/02/02 14:13:04;;;;;;;2.13;2.03;;;;;;;;;;4975402;28;20086;-88
2023/02/02 14:15:38;;;;;;;3.47;3.17;;;;;;;;;;4974211;28;20394;-84
2023/02/02 14:18:05;;;;;;;6.97;6.50;;;;;;;;;;4973968;28;20134;-85
2023/02/02 14:20:47;;;;;;;1.65;1.55;;;;;;;;;;4963224;28;20047;-87
2023/02/02 14:23:32;;;;;;;2.72;2.60;;;;;;;;;;4954804;28;20472;-87
2023/02/02 14:26:08;;;;;;;6.80;6.50;;;;;;;;;;4963385;28;20067;-88
2023/02/02 14:28:41;;;;;;;2.63;2.42;;;;;;;;;;4955165;29;20070;-87
2023/02/02 14:31:18;;;;;;;2.15;1.98;;;;;;;;;;4955538;29;20055;-85
2023/02/02 14:33:46;;;;;;;3.15;3.05;;;;;;;;;;4955447;29;20054;-86
2023/02/02 14:36:14;;;;;;;1.88;1.70;;;;;;;;;;4959725;29;20167;-87
2023/02/02 14:39:01;;;;;;;10.68;10.18;;;;;;;;;;4963902;29;20047;-86
2023/02/02 14:44:20;;;;;;;1.95;1.85;;;;;;;;;;4964428;29;20265;-87
2023/02/02 14:46:48;;;;;;;1.77;1.67;;;;;;;;;;4962477;29;20402;-86
2023/02/02 14:49:15;;;;;;;2.95;2.30;;;;;;;;;;4955726;28;20045;-87
2023/02/02 14:51:46;;;;;;;1.48;1.38;;;;;;;;;;4955969;29;20058;-87
2023/02/02 14:54:19;;;;;;;9.25;2.50;;;;;;;;;;4956505;29;20114;-87
2023/02/02 14:56:49;;;;;;;1.23;1.23;;;;;;;;;;4956286;29;20457;-87
2023/02/02 14:59:18;;;;;;;2.38;2.28;;;;;;;;;;4956067;29;20043;-89
2023/02/02 15:01:52;;;;;;;3.25;3.05;;;;;;;;;;4955559;29;20569;-86
2023/02/02 15:04:24;;;;;;;1.55;1.45;;;;;;;;;;4955383;29;20524;-87
2023/02/02 15:06:51;;;;;;;5.03;4.80;;;;;;;;;;4955355;29;20077;-87
2023/02/02 15:09:37;;;;;;;1.73;1.63;;;;;;;;;;4948445;29;20051;-88